Main page
METAR-TAF:

METAR-TAF

Airports :

Meriden Markham Municipal Airport

Meriden, Connecticut, United States

latitude: 41-30-35N, longitude: 072-49-40W, elevation: 102 ft

Current weather observation

The report was made 1 hour and 3 minutes ago, at 00:53 UTC
Calm wind
Temperature 28°F
Humidity 80%
Pressure 30.40 in. Hg
Visibility: 10 miles
Few clouds at a height of 2800 ft

METAR: KMMK 090053Z AUTO 00000KT 10SM FEW028 M02/M05 A3040 RMK AO2 SLP295 T10221050

Time: 20:56 (01:56 UTC)


TAF: missing

Weather observations and forecasts of more than 4000 airports (METAR and TAF reports).

The available stations are represented by yellow and red dots on the map.

Hover mouse over dot to see the name of the station.

Then click to see weather observations and forecasts.

To change the map : click on the green buttons with a black cross to zoom in, on the green button with a dash to zoom out, or on the green arrows for adjacent maps.


METAR-TAF: